createdAt,value
2019-01-25T00:01:41.661Z,93.57
2019-01-25T00:04:08.120Z,105.87
2019-01-25T00:06:34.586Z,93.87
2019-01-25T00:09:01.037Z,94.87
2019-01-25T00:11:27.521Z,84.00
2019-01-25T00:13:53.983Z,95.03
2019-01-25T00:16:20.461Z,99.70
2019-01-25T00:18:47.022Z,100.03
2019-01-25T00:21:13.599Z,88.53
2019-01-25T00:23:40.051Z,90.97
2019-01-25T00:26:06.536Z,93.67
2019-01-25T00:28:33.012Z,89.87
2019-01-25T00:30:59.480Z,94.13
2019-01-25T00:33:25.847Z,96.67
2019-01-25T00:35:52.195Z,97.80
2019-01-25T00:38:18.677Z,97.00
2019-01-25T00:40:45.250Z,89.80
2019-01-25T00:43:11.645Z,95.37
2019-01-25T00:45:38.300Z,89.87
2019-01-25T00:48:04.865Z,96.10
2019-01-25T00:50:31.310Z,98.60
2019-01-25T00:52:57.694Z,100.67
2019-01-25T00:55:24.135Z,77.80
2019-01-25T00:57:50.625Z,97.53
2019-01-25T01:00:19.007Z,79.90
2019-01-25T01:02:45.587Z,80.60
2019-01-25T01:05:12.235Z,83.37
2019-01-25T01:07:38.707Z,76.30
2019-01-25T01:10:06.502Z,86.50
2019-01-25T01:12:32.969Z,80.00
2019-01-25T01:14:59.593Z,77.27
2019-01-25T01:17:26.157Z,77.87
2019-01-25T01:19:52.627Z,76.80
2019-01-25T01:22:19.087Z,81.93
2019-01-25T01:24:45.760Z,75.27
2019-01-25T01:27:12.357Z,71.20
2019-01-25T01:29:38.764Z,70.93
2019-01-25T01:32:05.227Z,65.63
2019-01-25T01:34:31.791Z,75.20
2019-01-25T01:36:58.249Z,80.53
2019-01-25T01:39:24.732Z,73.70
2019-01-25T01:41:51.197Z,77.47
2019-01-25T01:44:17.809Z,73.43
2019-01-25T01:46:44.274Z,67.50
2019-01-25T01:49:10.749Z,74.70
2019-01-25T01:51:37.321Z,81.10
2019-01-25T01:54:03.777Z,77.93
2019-01-25T01:56:30.344Z,77.40
2019-01-25T01:58:56.813Z,71.30
2019-01-25T02:01:23.417Z,77.63
2019-01-25T02:03:49.794Z,72.30
2019-01-25T02:06:16.400Z,84.33
2019-01-25T02:08:42.865Z,83.30
2019-01-25T02:11:09.254Z,76.90
2019-01-25T02:13:35.809Z,76.70
2019-01-25T02:16:02.238Z,78.17
2019-01-25T02:18:28.697Z,84.90
2019-01-25T02:20:55.530Z,80.70
2019-01-25T02:23:21.875Z,78.30
2019-01-25T02:25:48.351Z,79.13
2019-01-25T02:28:14.879Z,74.47
2019-01-25T02:30:41.364Z,74.50
2019-01-25T02:33:08.017Z,75.70
2019-01-25T02:35:34.367Z,84.43
2019-01-25T02:38:00.941Z,81.37
2019-01-25T02:40:27.411Z,80.57
2019-01-25T02:42:54.113Z,75.83
2019-01-25T02:45:20.568Z,79.17
2019-01-25T02:47:47.130Z,81.40
2019-01-25T02:50:14.411Z,89.30
2019-01-25T02:52:40.972Z,83.87
2019-01-25T02:55:08.429Z,82.13
2019-01-25T02:57:34.914Z,78.13
2019-01-25T03:00:01.681Z,75.47
2019-01-25T03:02:28.140Z,84.97
2019-01-25T03:04:54.505Z,79.03
2019-01-25T03:07:21.000Z,73.57
2019-01-25T03:09:47.570Z,74.13
2019-01-25T03:12:14.052Z,82.23
2019-01-25T03:14:40.603Z,78.80
2019-01-25T03:17:07.197Z,77.57
2019-01-25T03:19:33.663Z,82.77
2019-01-25T03:22:00.225Z,82.63
2019-01-25T03:24:26.716Z,76.50
2019-01-25T03:26:53.199Z,78.97
2019-01-25T03:29:19.696Z,84.67
2019-01-25T03:31:46.158Z,82.73
2019-01-25T03:34:12.640Z,78.77
2019-01-25T03:36:39.192Z,80.27
2019-01-25T03:39:06.478Z,86.33
2019-01-25T03:41:32.945Z,78.53
2019-01-25T03:43:59.443Z,80.63
2019-01-25T03:46:26.004Z,81.27
2019-01-25T03:48:52.387Z,85.10
2019-01-25T03:51:18.943Z,74.33
2019-01-25T03:53:45.521Z,78.20
2019-01-25T03:56:11.978Z,85.13
2019-01-25T03:58:38.457Z,83.27
2019-01-25T04:01:04.910Z,83.33
2019-01-25T04:03:31.378Z,78.07
2019-01-25T04:05:57.841Z,73.37
2019-01-25T04:08:24.420Z,82.87
2019-01-25T04:10:50.762Z,74.77
2019-01-25T04:13:17.337Z,75.33
2019-01-25T04:15:43.833Z,85.97
2019-01-25T04:18:10.381Z,78.67
2019-01-25T04:20:36.983Z,81.30
2019-01-25T04:23:03.430Z,86.77
2019-01-25T04:25:30.035Z,84.60
2019-01-25T04:27:56.524Z,82.80
2019-01-25T04:30:24.016Z,91.57
2019-01-25T04:32:50.455Z,84.60
2019-01-25T04:35:16.952Z,84.10
2019-01-25T04:37:43.404Z,87.57
2019-01-25T04:40:11.282Z,90.93
2019-01-25T04:42:37.648Z,96.33
2019-01-25T04:45:05.711Z,84.37
2019-01-25T04:47:32.151Z,82.07
2019-01-25T04:49:58.638Z,90.13
2019-01-25T04:52:25.076Z,80.20
2019-01-25T04:54:51.523Z,85.77
2019-01-25T04:57:17.992Z,86.57
2019-01-25T04:59:44.660Z,86.27
2019-01-25T05:02:11.135Z,76.33
2019-01-25T05:04:37.683Z,82.23
2019-01-25T05:07:04.359Z,83.87
2019-01-25T05:09:33.618Z,77.77
2019-01-25T05:12:00.063Z,84.50
2019-01-25T05:14:26.523Z,92.20
2019-01-25T05:16:52.907Z,94.90
2019-01-25T05:19:19.352Z,96.67
2019-01-25T05:21:45.760Z,89.07
2019-01-25T05:24:12.312Z,89.90
2019-01-25T05:26:38.828Z,87.63
2019-01-25T05:29:05.374Z,104.10
2019-01-25T05:31:32.356Z,100.70
2019-01-25T05:33:59.302Z,94.40
2019-01-25T05:36:25.763Z,95.13
2019-01-25T05:38:52.144Z,103.83
2019-01-25T05:41:18.743Z,89.43
2019-01-25T05:43:45.315Z,97.93
2019-01-25T05:46:11.799Z,95.97
2019-01-25T05:48:38.247Z,96.13
2019-01-25T05:51:04.907Z,83.33
2019-01-25T05:53:31.377Z,94.23
2019-01-25T05:55:57.866Z,89.33
2019-01-25T05:58:24.457Z,88.07
2019-01-25T06:00:50.918Z,87.97
2019-01-25T06:03:17.382Z,97.83
2019-01-25T06:05:43.892Z,90.87
2019-01-25T06:08:13.158Z,90.50
2019-01-25T06:10:39.623Z,92.03
2019-01-25T06:13:06.003Z,93.33
2019-01-25T06:15:32.561Z,90.00
2019-01-25T06:17:59.786Z,91.00
2019-01-25T06:20:26.250Z,94.27
2019-01-25T06:22:54.526Z,98.43
2019-01-25T06:25:20.917Z,104.57
2019-01-25T06:27:47.451Z,89.23
2019-01-25T06:30:14.657Z,89.63
2019-01-25T06:32:41.240Z,96.53
2019-01-25T06:35:08.696Z,90.70
2019-01-25T06:37:35.169Z,91.00
2019-01-25T06:40:02.137Z,89.03
2019-01-25T06:42:28.627Z,89.20
2019-01-25T06:44:55.208Z,88.20
2019-01-25T06:47:21.659Z,85.77
2019-01-25T06:49:48.156Z,98.93
2019-01-25T06:52:14.529Z,88.00
2019-01-25T06:54:40.986Z,88.20
2019-01-25T06:57:09.334Z,101.57
2019-01-25T06:59:36.044Z,93.30
2019-01-25T07:02:04.552Z,100.63
2019-01-25T07:04:31.058Z,91.37
2019-01-25T07:06:57.729Z,93.60
2019-01-25T07:09:24.187Z,93.70
2019-01-25T07:11:51.804Z,93.93
2019-01-25T07:14:18.527Z,87.30
2019-01-25T07:16:44.979Z,87.23
2019-01-25T07:19:11.478Z,85.83
2019-01-25T07:21:37.926Z,96.87
2019-01-25T07:24:04.518Z,85.00
2019-01-25T07:26:31.013Z,86.27
2019-01-25T07:28:57.495Z,90.33
2019-01-25T07:31:23.992Z,96.10
2019-01-25T07:33:50.535Z,92.03
2019-01-25T07:36:17.023Z,81.17
2019-01-25T07:38:43.508Z,87.53
2019-01-25T07:41:10.082Z,87.97
2019-01-25T07:43:36.540Z,86.60
2019-01-25T07:46:03.218Z,88.57
2019-01-25T07:48:29.668Z,97.40
2019-01-25T07:50:56.234Z,97.43
2019-01-25T07:53:22.835Z,93.60
2019-01-25T07:55:49.351Z,90.40
2019-01-25T07:58:15.921Z,89.93
2019-01-25T08:00:42.514Z,88.33
2019-01-25T08:03:09.145Z,95.47
2019-01-25T08:05:35.741Z,88.83
2019-01-25T08:08:02.318Z,86.20
2019-01-25T08:10:28.988Z,86.67
2019-01-25T08:12:55.440Z,83.43
2019-01-25T08:15:23.725Z,88.73
2019-01-25T08:17:50.288Z,81.07
2019-01-25T08:20:16.765Z,80.93
2019-01-25T08:22:43.329Z,82.20
2019-01-25T08:25:09.775Z,84.97
2019-01-25T08:27:36.324Z,104.63
2019-01-25T08:30:04.740Z,87.40
2019-01-25T08:32:31.246Z,83.87
2019-01-25T08:34:57.718Z,95.70
2019-01-25T08:37:24.214Z,102.83
2019-01-25T08:39:50.660Z,88.27
2019-01-25T08:42:17.136Z,82.77
2019-01-25T08:44:43.716Z,81.13
2019-01-25T08:47:10.272Z,101.33
2019-01-25T08:49:36.811Z,81.37
2019-01-25T08:52:03.496Z,79.90
2019-01-25T08:54:30.051Z,96.53
2019-01-25T08:56:56.678Z,86.47
2019-01-25T08:59:23.109Z,75.07
2019-01-25T09:01:49.916Z,77.63
2019-01-25T09:04:16.555Z,75.77
2019-01-25T09:06:43.015Z,72.80
2019-01-25T09:09:09.482Z,70.20
2019-01-25T09:11:36.067Z,70.63
2019-01-25T09:14:02.631Z,69.03
2019-01-25T09:16:29.089Z,74.00
2019-01-25T09:18:55.563Z,75.83
2019-01-25T09:21:22.014Z,78.67
2019-01-25T09:23:48.602Z,74.83
2019-01-25T09:26:15.177Z,71.20
2019-01-25T09:28:41.754Z,70.10
2019-01-25T09:31:08.316Z,72.57
2019-01-25T09:33:34.909Z,67.40
2019-01-25T09:36:01.363Z,68.67
2019-01-25T09:38:27.939Z,68.43
2019-01-25T09:40:54.411Z,64.70
2019-01-25T09:43:20.899Z,64.83
2019-01-25T09:45:47.460Z,66.33
2019-01-25T09:48:13.843Z,54.80
2019-01-25T09:50:40.302Z,57.50
2019-01-25T09:53:06.794Z,64.00
2019-01-25T09:55:33.490Z,56.73
2019-01-25T09:58:01.860Z,56.50
2019-01-25T10:00:30.031Z,62.80
2019-01-25T10:02:56.641Z,57.60
2019-01-25T10:05:23.196Z,60.50
2019-01-25T10:07:49.758Z,61.33
2019-01-25T10:10:17.859Z,56.67
2019-01-25T10:12:44.325Z,64.00
2019-01-25T10:15:12.622Z,54.73
2019-01-25T10:17:38.987Z,55.87
2019-01-25T10:20:05.383Z,56.23
2019-01-25T10:22:32.012Z,57.50
2019-01-25T10:24:58.471Z,54.40
2019-01-25T10:27:24.982Z,55.53
2019-01-25T10:29:51.542Z,52.03
2019-01-25T10:32:18.003Z,62.87
2019-01-25T10:34:44.388Z,51.23
2019-01-25T10:37:10.962Z,52.77
2019-01-25T10:39:37.539Z,52.13
2019-01-25T10:42:04.038Z,51.40
2019-01-25T10:44:30.448Z,53.70
2019-01-25T10:46:57.025Z,53.83
2019-01-25T10:49:23.493Z,53.37
2019-01-25T10:51:50.168Z,53.07
2019-01-25T10:54:16.733Z,53.80
2019-01-25T10:56:43.195Z,52.00
2019-01-25T10:59:09.705Z,47.37
2019-01-25T11:01:36.277Z,43.47
2019-01-25T11:04:03.132Z,33.93
2019-01-25T11:06:29.610Z,35.97
2019-01-25T11:08:56.164Z,35.43
2019-01-25T11:11:22.740Z,40.83
2019-01-25T11:13:49.208Z,37.87
2019-01-25T11:16:15.684Z,35.93
2019-01-25T11:18:42.236Z,37.93
2019-01-25T11:21:08.711Z,36.20
2019-01-25T11:23:35.490Z,35.53
2019-01-25T11:26:02.082Z,38.10
2019-01-25T11:28:28.479Z,40.37
2019-01-25T11:30:54.872Z,37.07
2019-01-25T11:33:21.266Z,37.83
2019-01-25T11:35:47.843Z,37.37
2019-01-25T11:38:14.218Z,40.50
2019-01-25T11:40:41.670Z,44.70
2019-01-25T11:43:09.161Z,36.53
2019-01-25T11:45:35.955Z,35.53
2019-01-25T11:48:04.411Z,38.33
2019-01-25T11:50:30.868Z,34.93
2019-01-25T11:52:57.238Z,37.43
2019-01-25T11:55:23.697Z,44.63
2019-01-25T11:57:50.058Z,36.17
2019-01-25T12:00:18.037Z,35.53
2019-01-25T12:02:44.426Z,33.60
2019-01-25T12:05:12.440Z,40.67
2019-01-25T12:07:38.895Z,35.70
2019-01-25T12:10:07.209Z,48.07
2019-01-25T12:12:33.931Z,36.63
2019-01-25T12:15:00.586Z,39.80
2019-01-25T12:17:27.014Z,40.57
2019-01-25T12:19:53.584Z,40.80
2019-01-25T12:22:20.114Z,42.17
2019-01-25T12:24:46.551Z,39.47
2019-01-25T12:27:13.071Z,40.23
2019-01-25T12:29:39.656Z,39.37
2019-01-25T12:32:06.130Z,42.97
2019-01-25T12:34:32.690Z,44.07
2019-01-25T12:36:59.153Z,35.70
2019-01-25T12:39:25.672Z,38.93
2019-01-25T12:41:52.147Z,39.00
2019-01-25T12:44:18.763Z,40.70
2019-01-25T12:46:45.229Z,39.30
2019-01-25T12:49:11.808Z,41.10
2019-01-25T12:51:38.255Z,37.37
2019-01-25T12:54:04.755Z,40.57
2019-01-25T12:56:33.981Z,41.37
2019-01-25T12:59:00.465Z,46.03
2019-01-25T13:01:28.840Z,41.10
2019-01-25T13:03:55.457Z,49.70
2019-01-25T13:06:21.843Z,45.10
2019-01-25T13:08:48.345Z,38.50
2019-01-25T13:11:14.807Z,36.10
2019-01-25T13:13:41.207Z,34.03
2019-01-25T13:16:07.777Z,38.43
2019-01-25T13:18:34.213Z,38.37
2019-01-25T13:21:00.597Z,39.07
2019-01-25T13:23:26.988Z,40.17
2019-01-25T13:25:53.442Z,40.90
2019-01-25T13:28:20.033Z,44.87
2019-01-25T13:30:46.613Z,46.23
2019-01-25T13:33:13.102Z,44.27
2019-01-25T13:35:39.731Z,35.57
2019-01-25T13:38:06.114Z,43.63
2019-01-25T13:40:32.591Z,41.50
2019-01-25T13:42:59.030Z,40.13
2019-01-25T13:45:25.622Z,37.53
2019-01-25T13:47:52.289Z,51.03
2019-01-25T13:50:19.973Z,40.47
2019-01-25T13:52:46.636Z,42.07
2019-01-25T13:55:14.045Z,38.07
2019-01-25T13:57:40.714Z,40.17
2019-01-25T14:00:09.184Z,38.43
2019-01-25T14:02:35.633Z,39.47
2019-01-25T14:05:02.814Z,36.77
2019-01-25T14:07:29.275Z,37.57
2019-01-25T14:09:55.668Z,38.77
2019-01-25T14:12:22.120Z,35.40
2019-01-25T14:14:49.077Z,44.13
2019-01-25T14:17:15.621Z,40.57
2019-01-25T14:19:42.196Z,35.10
2019-01-25T14:22:08.566Z,44.63
2019-01-25T14:24:35.133Z,40.37
2019-01-25T14:27:01.667Z,41.20
2019-01-25T14:29:29.342Z,40.67
2019-01-25T14:31:56.114Z,41.27
2019-01-25T14:34:22.567Z,39.83
2019-01-25T14:36:49.162Z,42.40
2019-01-25T14:39:15.611Z,39.70
2019-01-25T14:41:42.116Z,49.53
2019-01-25T14:44:08.589Z,43.23
2019-01-25T14:46:35.101Z,48.17
2019-01-25T14:49:01.661Z,40.87
2019-01-25T14:51:28.046Z,41.10
2019-01-25T14:53:54.408Z,49.53
2019-01-25T14:56:20.867Z,38.27
2019-01-25T14:58:47.318Z,43.77
2019-01-25T15:01:13.978Z,45.00
2019-01-25T15:03:40.336Z,42.43
2019-01-25T15:06:06.769Z,46.57
2019-01-25T15:08:33.229Z,45.13
2019-01-25T15:10:59.788Z,45.40
2019-01-25T15:13:26.374Z,41.03
2019-01-25T15:15:52.916Z,46.60
2019-01-25T15:18:19.479Z,45.77
2019-01-25T15:20:45.958Z,48.07
2019-01-25T15:23:12.415Z,47.20
2019-01-25T15:25:38.966Z,51.87
2019-01-25T15:28:05.494Z,52.87
2019-01-25T15:30:32.172Z,48.53
2019-01-25T15:32:58.724Z,53.23
2019-01-25T15:35:25.404Z,53.77
2019-01-25T15:37:52.007Z,49.17
2019-01-25T15:40:19.265Z,54.57
2019-01-25T15:42:45.931Z,58.60
2019-01-25T15:45:13.722Z,59.23
2019-01-25T15:47:40.211Z,48.87
2019-01-25T15:50:08.569Z,56.43
2019-01-25T15:52:35.250Z,57.07
2019-01-25T15:55:02.510Z,52.03
2019-01-25T15:57:30.377Z,59.37
2019-01-25T15:59:57.063Z,54.93
2019-01-25T16:02:23.520Z,52.83
2019-01-25T16:04:50.060Z,58.10
2019-01-25T16:07:16.611Z,61.17
2019-01-25T16:09:43.086Z,57.93
2019-01-25T16:12:09.650Z,56.33
2019-01-25T16:14:36.105Z,56.17
2019-01-25T16:17:02.755Z,53.57
2019-01-25T16:19:29.219Z,54.47
2019-01-25T16:21:55.777Z,59.83
2019-01-25T16:24:22.253Z,58.13
2019-01-25T16:26:48.904Z,53.67
2019-01-25T16:29:15.391Z,55.73
2019-01-25T16:31:41.973Z,51.93
2019-01-25T16:34:08.616Z,57.63
2019-01-25T16:36:35.286Z,61.20
2019-01-25T16:39:03.891Z,55.93
2019-01-25T16:41:30.645Z,57.63
2019-01-25T16:43:57.320Z,54.10
2019-01-25T16:46:24.018Z,58.57
2019-01-25T16:48:50.681Z,53.87
2019-01-25T16:51:17.339Z,57.33
2019-01-25T16:53:44.213Z,61.57
2019-01-25T16:56:10.663Z,53.80
2019-01-25T16:58:37.329Z,60.50
2019-01-25T17:01:04.088Z,63.40
2019-01-25T17:03:30.664Z,60.00
2019-01-25T17:05:57.449Z,55.00
2019-01-25T17:08:24.011Z,56.07
2019-01-25T17:10:50.489Z,60.30
2019-01-25T17:13:16.948Z,58.90
2019-01-25T17:15:43.440Z,56.33
2019-01-25T17:18:10.092Z,58.47
2019-01-25T17:20:36.534Z,57.07
2019-01-25T17:23:02.992Z,63.30
2019-01-25T17:25:29.587Z,58.23
2019-01-25T17:27:57.084Z,61.83
2019-01-25T17:30:24.930Z,54.33
2019-01-25T17:32:52.290Z,58.93
2019-01-25T17:35:18.966Z,53.90
2019-01-25T17:37:45.640Z,54.43
2019-01-25T17:40:13.459Z,58.20
2019-01-25T17:42:40.334Z,59.13
2019-01-25T17:45:07.815Z,58.83
2019-01-25T17:47:34.403Z,57.57
2019-01-25T17:50:01.075Z,59.43
2019-01-25T17:52:27.880Z,58.90
2019-01-25T17:54:54.462Z,63.63
2019-01-25T17:57:21.143Z,64.53
2019-01-25T17:59:47.892Z,60.20
2019-01-25T18:02:14.881Z,65.37
2019-01-25T18:04:41.532Z,57.23
2019-01-25T18:07:08.218Z,51.40
2019-01-25T18:09:34.692Z,59.73
2019-01-25T18:12:01.380Z,57.63
2019-01-25T18:14:28.047Z,57.80
2019-01-25T18:16:54.846Z,56.23
2019-01-25T18:19:21.500Z,63.27
2019-01-25T18:21:48.374Z,56.77
2019-01-25T18:24:15.256Z,53.47
2019-01-25T18:26:42.039Z,59.43
2019-01-25T18:29:09.040Z,54.53
2019-01-25T18:31:35.993Z,53.50
2019-01-25T18:34:03.279Z,55.17
2019-01-25T18:36:30.250Z,56.57
2019-01-25T18:38:57.340Z,55.50
2019-01-25T18:41:24.208Z,56.70
2019-01-25T18:43:50.966Z,50.90
2019-01-25T18:46:17.860Z,54.80
2019-01-25T18:48:44.640Z,51.50
2019-01-25T18:51:11.403Z,58.17
2019-01-25T18:53:38.417Z,56.37
2019-01-25T18:56:05.691Z,56.23
2019-01-25T18:58:32.467Z,59.17
2019-01-25T19:00:59.320Z,69.63
2019-01-25T19:03:26.315Z,68.00
2019-01-25T19:05:53.078Z,64.60
2019-01-25T19:08:19.979Z,68.47
2019-01-25T19:10:46.931Z,69.27
2019-01-25T19:13:13.791Z,95.90
2019-01-25T19:15:40.684Z,82.73
2019-01-25T19:18:07.534Z,67.53
2019-01-25T19:20:34.337Z,61.73
2019-01-25T19:23:01.238Z,59.77
2019-01-25T19:25:28.270Z,48.73
2019-01-25T19:27:55.242Z,48.17
2019-01-25T19:30:23.415Z,51.40
2019-01-25T19:32:50.408Z,49.83
2019-01-25T19:35:17.414Z,39.57
2019-01-25T19:37:44.181Z,50.27
2019-01-25T19:40:12.568Z,50.53
2019-01-25T19:42:40.654Z,68.40
2019-01-25T19:45:11.980Z,51.37
2019-01-25T19:47:37.752Z,49.90
2019-01-25T19:50:06.117Z,48.40
2019-01-25T19:52:33.180Z,51.47
2019-01-25T19:55:00.097Z,45.53
2019-01-25T19:57:27.128Z,60.17
2019-01-25T19:59:54.020Z,45.57
2019-01-25T20:02:20.826Z,50.37
2019-01-25T20:04:47.726Z,46.90
2019-01-25T20:07:14.493Z,40.87
2019-01-25T20:09:41.438Z,39.97
2019-01-25T20:12:08.550Z,45.23
2019-01-25T20:14:35.609Z,42.53
2019-01-25T20:17:02.783Z,41.10
2019-01-25T20:19:29.841Z,42.10
2019-01-25T20:21:56.726Z,41.53
2019-01-25T20:24:23.784Z,36.40
2019-01-25T20:26:50.757Z,35.57
2019-01-25T20:29:17.655Z,39.27
2019-01-25T20:31:44.627Z,36.27
2019-01-25T20:34:11.503Z,47.73
2019-01-25T20:36:38.505Z,43.97
2019-01-25T20:39:05.935Z,46.33
2019-01-25T20:41:32.922Z,45.07
2019-01-25T20:44:00.089Z,40.53
2019-01-25T20:46:26.992Z,41.90
2019-01-25T20:48:53.959Z,41.67
2019-01-25T20:51:20.967Z,37.87
2019-01-25T20:53:47.823Z,34.73
2019-01-25T20:56:14.707Z,35.73
2019-01-25T20:58:41.587Z,40.40
2019-01-25T21:01:08.609Z,37.73
2019-01-25T21:03:35.565Z,37.47
2019-01-25T21:06:02.538Z,33.00
2019-01-25T21:08:29.517Z,33.57
2019-01-25T21:10:56.476Z,35.53
2019-01-25T21:13:23.375Z,40.27
2019-01-25T21:15:50.370Z,38.10
2019-01-25T21:18:17.253Z,33.00
2019-01-25T21:20:44.210Z,34.33
2019-01-25T21:23:11.017Z,33.90
2019-01-25T21:25:38.176Z,41.57
2019-01-25T21:28:05.200Z,33.33
2019-01-25T21:30:33.059Z,38.17
2019-01-25T21:32:59.936Z,34.47
2019-01-25T21:35:26.564Z,34.43
2019-01-25T21:37:53.538Z,37.37
2019-01-25T21:40:21.587Z,38.63
2019-01-25T21:42:48.496Z,32.40
2019-01-25T21:45:16.770Z,36.80
2019-01-25T21:47:43.844Z,38.33
2019-01-25T21:50:12.279Z,36.57
2019-01-25T21:52:39.238Z,35.70
2019-01-25T21:55:07.616Z,35.30
2019-01-25T21:57:34.405Z,37.50
2019-01-25T22:00:01.344Z,36.33
2019-01-25T22:02:28.097Z,34.13
2019-01-25T22:04:54.571Z,34.57
2019-01-25T22:07:21.243Z,33.90
2019-01-25T22:09:47.715Z,30.70
2019-01-25T22:12:14.387Z,33.23
2019-01-25T22:14:41.183Z,33.00
2019-01-25T22:17:07.730Z,35.50
2019-01-25T22:19:34.330Z,33.40
2019-01-25T22:22:00.897Z,39.53
2019-01-25T22:24:27.474Z,32.43
2019-01-25T22:26:54.042Z,34.17
2019-01-25T22:29:20.523Z,37.77
2019-01-25T22:31:46.988Z,30.63
2019-01-25T22:34:13.468Z,36.33
2019-01-25T22:36:40.252Z,30.67
2019-01-25T22:39:06.712Z,29.57
2019-01-25T22:41:33.176Z,28.83
2019-01-25T22:43:59.659Z,30.53
2019-01-25T22:46:26.212Z,28.87
2019-01-25T22:48:52.782Z,25.47
2019-01-25T22:51:19.168Z,25.23
2019-01-25T22:53:46.106Z,30.50
2019-01-25T22:56:12.818Z,25.80
2019-01-25T22:58:39.272Z,28.53
2019-01-25T23:01:07.663Z,25.27
2019-01-25T23:03:36.020Z,26.00
2019-01-25T23:06:04.406Z,22.83
2019-01-25T23:08:30.891Z,27.63
2019-01-25T23:10:57.350Z,25.30
2019-01-25T23:13:23.804Z,22.33
2019-01-25T23:15:50.389Z,22.10
2019-01-25T23:18:16.936Z,23.60
2019-01-25T23:20:43.327Z,21.70
2019-01-25T23:23:09.906Z,20.30
2019-01-25T23:25:36.354Z,24.23
2019-01-25T23:28:02.769Z,18.03
2019-01-25T23:30:29.328Z,18.87
2019-01-25T23:32:55.887Z,17.97
2019-01-25T23:35:22.398Z,20.30
2019-01-25T23:37:48.873Z,18.07
2019-01-25T23:40:15.324Z,17.30
2019-01-25T23:42:41.790Z,20.73
2019-01-25T23:45:08.241Z,16.20
2019-01-25T23:47:34.718Z,20.97
2019-01-25T23:50:01.499Z,22.07
2019-01-25T23:52:28.013Z,20.50
2019-01-25T23:54:54.361Z,17.27
2019-01-25T23:57:20.849Z,17.80
2019-01-25T23:59:47.305Z,18.93
